createdAt,value
2023-05-19T00:00:12.651Z,8.08
2023-05-19T00:02:39.172Z,7.93
2023-05-19T00:05:05.632Z,8.00
2023-05-19T00:07:32.135Z,7.88
2023-05-19T00:09:58.631Z,7.89
2023-05-19T00:12:25.322Z,7.98
2023-05-19T00:14:51.769Z,7.96
2023-05-19T00:17:18.303Z,8.25
2023-05-19T00:19:44.696Z,8.28
2023-05-19T00:22:11.112Z,8.16
2023-05-19T00:24:37.617Z,7.98
2023-05-19T00:27:04.006Z,7.97
2023-05-19T00:29:30.378Z,8.16
2023-05-19T00:31:56.872Z,8.22
2023-05-19T00:34:23.286Z,7.95
2023-05-19T00:36:49.732Z,8.00
2023-05-19T00:39:16.291Z,8.05
2023-05-19T00:41:42.746Z,8.19
2023-05-19T00:44:09.163Z,8.28
2023-05-19T00:46:35.725Z,8.27
2023-05-19T00:49:02.192Z,7.94
2023-05-19T00:51:28.821Z,8.10
2023-05-19T00:53:55.591Z,8.25
2023-05-19T00:56:21.997Z,8.27
2023-05-19T00:58:48.368Z,8.28
2023-05-19T01:01:14.920Z,8.22
2023-05-19T01:03:41.497Z,8.09
2023-05-19T01:06:08.204Z,8.20
2023-05-19T01:08:34.742Z,8.07
2023-05-19T01:11:01.089Z,8.24
2023-05-19T01:13:27.586Z,8.38
2023-05-19T01:15:54.000Z,8.30
2023-05-19T01:18:20.798Z,8.12
2023-05-19T01:20:47.213Z,8.19
2023-05-19T01:23:13.731Z,8.23
2023-05-19T01:25:40.624Z,8.10
2023-05-19T01:28:07.028Z,8.10
2023-05-19T01:30:33.557Z,8.03
2023-05-19T01:33:00.377Z,8.13
2023-05-19T01:35:26.844Z,8.05
2023-05-19T01:37:53.285Z,8.15
2023-05-19T01:40:19.716Z,8.28
2023-05-19T01:42:46.182Z,8.35
2023-05-19T01:45:12.649Z,8.26
2023-05-19T01:47:39.111Z,8.20
2023-05-19T01:50:05.680Z,8.20
2023-05-19T01:52:32.087Z,8.17
2023-05-19T01:54:58.643Z,8.26
2023-05-19T01:57:25.124Z,8.30
2023-05-19T01:59:51.515Z,8.29
2023-05-19T02:02:17.958Z,8.38
2023-05-19T02:04:44.578Z,8.28
2023-05-19T02:07:11.109Z,8.20
2023-05-19T02:09:37.524Z,8.24
2023-05-19T02:12:04.037Z,8.20
2023-05-19T02:14:30.488Z,8.25
2023-05-19T02:16:56.912Z,8.25
2023-05-19T02:19:23.473Z,8.37
2023-05-19T02:21:50.100Z,8.32
2023-05-19T02:24:17.650Z,8.28
2023-05-19T02:26:44.080Z,8.19
2023-05-19T02:29:10.664Z,8.09
2023-05-19T02:31:37.123Z,8.05
2023-05-19T02:34:03.668Z,7.95
2023-05-19T02:36:30.019Z,7.99
2023-05-19T02:38:56.428Z,8.18
2023-05-19T02:41:23.086Z,8.34
2023-05-19T02:43:49.441Z,8.35
2023-05-19T02:46:15.908Z,8.36
2023-05-19T02:48:42.479Z,8.03
2023-05-19T02:51:09.214Z,8.01
2023-05-19T02:53:35.823Z,8.05
2023-05-19T02:56:02.610Z,7.99
2023-05-19T02:58:29.015Z,8.04
2023-05-19T03:00:55.349Z,8.06
2023-05-19T03:03:21.840Z,8.18
2023-05-19T03:05:48.387Z,8.02
2023-05-19T03:08:14.791Z,7.95
2023-05-19T03:10:41.172Z,7.95
2023-05-19T03:13:07.657Z,7.90
2023-05-19T03:15:35.120Z,7.95
2023-05-19T03:18:01.861Z,8.04
2023-05-19T03:20:28.341Z,7.87
2023-05-19T03:22:54.953Z,7.82
2023-05-19T03:25:21.550Z,7.98
2023-05-19T03:27:47.912Z,8.07
2023-05-19T03:30:15.314Z,8.14
2023-05-19T03:32:42.186Z,8.19
2023-05-19T03:35:08.692Z,7.99
2023-05-19T03:37:35.175Z,8.01
2023-05-19T03:40:01.659Z,8.12
2023-05-19T03:42:28.064Z,8.17
2023-05-19T03:44:54.537Z,8.14
2023-05-19T03:47:21.588Z,8.27
2023-05-19T03:49:47.983Z,8.31
2023-05-19T03:52:14.399Z,8.24
2023-05-19T03:54:40.867Z,8.18
2023-05-19T03:57:07.553Z,8.08
2023-05-19T03:59:33.956Z,8.02
2023-05-19T04:02:00.452Z,8.13
2023-05-19T04:04:27.059Z,8.05
2023-05-19T04:06:53.473Z,8.12
2023-05-19T04:09:19.861Z,8.15
2023-05-19T04:11:46.240Z,8.23
2023-05-19T04:14:12.652Z,8.20
2023-05-19T04:16:40.169Z,8.19
2023-05-19T04:19:06.602Z,8.08
2023-05-19T04:21:33.317Z,8.04
2023-05-19T04:23:59.862Z,8.08
2023-05-19T04:26:26.329Z,8.07
2023-05-19T04:28:52.858Z,7.94
2023-05-19T04:31:19.393Z,7.90
2023-05-19T04:33:45.805Z,7.87
2023-05-19T04:36:12.222Z,7.97
2023-05-19T04:38:38.702Z,8.03
2023-05-19T04:41:05.265Z,8.19
2023-05-19T04:43:31.739Z,8.15
2023-05-19T04:45:58.223Z,8.25
2023-05-19T04:48:24.617Z,8.37
2023-05-19T04:50:51.243Z,8.48
2023-05-19T04:53:17.706Z,8.59
2023-05-19T04:55:44.167Z,8.57
2023-05-19T04:58:10.590Z,8.53
2023-05-19T05:00:37.043Z,8.35
2023-05-19T05:03:03.551Z,8.36
2023-05-19T05:05:30.094Z,8.38
2023-05-19T05:07:56.555Z,8.40
2023-05-19T05:10:23.005Z,8.23
2023-05-19T05:12:51.450Z,8.15
2023-05-19T05:15:17.854Z,8.15
2023-05-19T05:17:44.490Z,8.03
2023-05-19T05:20:10.998Z,8.17
2023-05-19T05:22:37.481Z,7.79
2023-05-19T05:25:04.878Z,7.86
2023-05-19T05:27:31.390Z,8.08
2023-05-19T05:29:59.275Z,8.78
2023-05-19T05:32:25.901Z,8.88
2023-05-19T05:34:52.712Z,8.76
2023-05-19T05:37:19.512Z,8.85
2023-05-19T05:39:48.171Z,9.04
2023-05-19T05:42:14.581Z,9.21
2023-05-19T05:44:41.460Z,9.16
2023-05-19T05:47:08.039Z,8.94
2023-05-19T05:49:34.479Z,9.07
2023-05-19T05:52:06.094Z,9.23
2023-05-19T05:54:33.092Z,9.34
2023-05-19T05:56:59.529Z,9.32
2023-05-19T05:59:26.005Z,8.96
2023-05-19T06:01:52.733Z,9.09
2023-05-19T06:04:19.185Z,9.29
2023-05-19T06:06:45.818Z,9.35
2023-05-19T06:09:12.506Z,9.28
2023-05-19T06:11:39.041Z,9.27
2023-05-19T06:14:05.690Z,9.21
2023-05-19T06:16:32.237Z,9.19
2023-05-19T06:18:59.118Z,9.43
2023-05-19T06:21:25.673Z,9.54
2023-05-19T06:23:52.106Z,9.51
2023-05-19T06:26:18.555Z,9.51
2023-05-19T06:28:45.179Z,9.40
2023-05-19T06:31:11.922Z,9.43
2023-05-19T06:33:38.338Z,9.50
2023-05-19T06:36:04.871Z,9.50
2023-05-19T06:38:31.664Z,9.61
2023-05-19T06:40:58.237Z,9.73
2023-05-19T06:43:24.700Z,9.63
2023-05-19T06:45:51.093Z,9.55
2023-05-19T06:48:17.539Z,9.71
2023-05-19T06:50:44.200Z,9.97
2023-05-19T06:53:10.664Z,10.09
2023-05-19T06:55:44.104Z,10.22
2023-05-19T06:58:21.193Z,10.24
2023-05-19T07:00:47.614Z,10.45
2023-05-19T07:03:14.207Z,10.28
2023-05-19T07:05:40.855Z,10.29
2023-05-19T07:08:07.547Z,10.23
2023-05-19T07:10:36.278Z,10.30
2023-05-19T07:13:02.919Z,10.28
2023-05-19T07:15:29.352Z,10.28
2023-05-19T07:17:55.925Z,10.30
2023-05-19T07:20:22.394Z,10.38
2023-05-19T07:22:50.750Z,10.40
2023-05-19T07:25:17.096Z,10.38
2023-05-19T07:27:43.570Z,10.49
2023-05-19T07:30:10.261Z,10.51
2023-05-19T07:32:36.654Z,10.50
2023-05-19T07:35:03.243Z,10.66
2023-05-19T07:37:29.757Z,10.81
2023-05-19T07:39:56.799Z,10.80
2023-05-19T07:42:23.259Z,10.80
2023-05-19T07:44:49.676Z,10.79
2023-05-19T07:47:18.130Z,10.83
2023-05-19T07:49:46.595Z,10.92
2023-05-19T07:52:12.993Z,10.92
2023-05-19T07:54:39.423Z,10.92
2023-05-19T07:57:08.275Z,11.00
2023-05-19T07:59:34.718Z,11.10
2023-05-19T08:02:01.223Z,11.28
2023-05-19T08:04:27.714Z,11.27
2023-05-19T08:06:54.326Z,11.21
2023-05-19T08:09:21.844Z,11.32
2023-05-19T08:11:48.333Z,11.24
2023-05-19T08:14:14.765Z,11.22
2023-05-19T08:16:41.586Z,11.23
2023-05-19T08:19:08.175Z,11.38
2023-05-19T08:21:34.619Z,11.28
2023-05-19T08:24:02.095Z,11.26
2023-05-19T08:26:28.508Z,11.40
2023-05-19T08:28:54.899Z,11.57
2023-05-19T08:31:21.832Z,11.60
2023-05-19T08:33:48.262Z,11.65
2023-05-19T08:36:15.172Z,11.82
2023-05-19T08:38:41.679Z,11.86
2023-05-19T08:41:08.170Z,11.81
2023-05-19T08:43:34.828Z,11.79
2023-05-19T08:46:01.259Z,11.89
2023-05-19T08:48:29.721Z,11.88
2023-05-19T08:50:56.155Z,11.87
2023-05-19T08:53:32.356Z,11.91
2023-05-19T08:56:01.565Z,11.96
2023-05-19T08:58:28.826Z,11.94
2023-05-19T09:00:55.465Z,11.86
2023-05-19T09:03:24.084Z,11.93
2023-05-19T09:05:50.859Z,11.88
2023-05-19T09:08:17.281Z,11.91
2023-05-19T09:10:43.857Z,12.05
2023-05-19T09:13:12.304Z,12.00
2023-05-19T09:15:39.100Z,12.12
2023-05-19T09:18:05.624Z,12.13
2023-05-19T09:20:32.165Z,12.13
2023-05-19T09:22:58.719Z,12.14
2023-05-19T09:25:27.459Z,12.16
2023-05-19T09:27:54.017Z,12.25
2023-05-19T09:30:20.409Z,12.39
2023-05-19T09:32:49.055Z,12.55
2023-05-19T09:35:15.733Z,12.70
2023-05-19T09:37:42.464Z,12.76
2023-05-19T09:40:10.050Z,12.81
2023-05-19T09:42:37.720Z,12.76
2023-05-19T09:45:04.407Z,12.94
2023-05-19T09:47:31.223Z,12.97
2023-05-19T09:49:57.690Z,12.99
2023-05-19T09:52:24.110Z,13.06
2023-05-19T09:54:50.522Z,13.07
2023-05-19T09:57:16.991Z,13.15
2023-05-19T09:59:43.898Z,13.16
2023-05-19T10:02:10.371Z,13.31
2023-05-19T10:04:36.937Z,13.42
2023-05-19T10:07:03.434Z,13.47
2023-05-19T10:09:29.953Z,13.58
2023-05-19T10:11:56.851Z,13.62
2023-05-19T10:14:23.380Z,13.64
2023-05-19T10:16:50.084Z,13.57
2023-05-19T10:19:16.674Z,13.59
2023-05-19T10:21:43.379Z,13.69
2023-05-19T10:24:11.577Z,13.68
2023-05-19T10:26:39.268Z,13.81
2023-05-19T10:29:05.792Z,13.91
2023-05-19T10:31:34.713Z,13.88
2023-05-19T10:34:03.894Z,13.87
2023-05-19T10:36:30.322Z,13.93
2023-05-19T10:38:56.852Z,13.94
2023-05-19T10:41:25.634Z,13.97
2023-05-19T10:43:52.065Z,13.90
2023-05-19T10:46:18.525Z,14.01
2023-05-19T10:48:45.222Z,13.99
2023-05-19T10:51:11.705Z,14.08
2023-05-19T10:53:38.250Z,14.10
2023-05-19T10:56:04.761Z,14.12
2023-05-19T10:58:31.195Z,14.21
2023-05-19T11:00:57.672Z,14.25
2023-05-19T11:03:24.519Z,14.33
2023-05-19T11:05:51.066Z,14.33
2023-05-19T11:08:17.455Z,14.29
2023-05-19T11:10:43.927Z,14.54
2023-05-19T11:13:10.401Z,14.60
2023-05-19T11:15:36.972Z,14.68
2023-05-19T11:18:03.524Z,14.80
2023-05-19T11:20:30.973Z,14.83
2023-05-19T11:22:57.457Z,14.85
2023-05-19T11:25:23.846Z,14.89
2023-05-19T11:27:50.369Z,14.97
2023-05-19T11:30:16.850Z,14.92
2023-05-19T11:32:43.340Z,14.99
2023-05-19T11:35:09.768Z,14.84
2023-05-19T11:37:36.213Z,14.68
2023-05-19T11:40:04.698Z,14.73
2023-05-19T11:42:31.236Z,14.69
2023-05-19T11:44:58.592Z,14.75
2023-05-19T11:47:25.274Z,14.80
2023-05-19T11:49:51.930Z,14.87
2023-05-19T11:52:18.443Z,14.89
2023-05-19T11:54:44.951Z,14.95
2023-05-19T11:57:11.423Z,14.88
2023-05-19T11:59:38.060Z,14.88
2023-05-19T12:02:04.486Z,15.03
2023-05-19T12:04:30.959Z,14.97
2023-05-19T12:06:57.678Z,14.93
2023-05-19T12:09:24.130Z,14.88
2023-05-19T12:11:50.558Z,14.93
2023-05-19T12:14:16.961Z,14.98
2023-05-19T12:16:43.822Z,15.09
2023-05-19T12:19:10.396Z,15.18
2023-05-19T12:21:37.333Z,15.22
2023-05-19T12:24:03.831Z,15.38
2023-05-19T12:26:30.407Z,15.42
2023-05-19T12:28:56.888Z,15.42
2023-05-19T12:31:23.669Z,15.31
2023-05-19T12:33:52.127Z,15.35
2023-05-19T12:36:18.656Z,15.42
2023-05-19T12:38:45.116Z,15.57
2023-05-19T12:41:11.734Z,15.70
2023-05-19T12:43:38.185Z,15.67
2023-05-19T12:46:04.661Z,15.69
2023-05-19T12:48:31.980Z,15.71
2023-05-19T12:50:58.386Z,15.72
2023-05-19T12:53:25.038Z,15.68
2023-05-19T12:55:51.486Z,15.69
2023-05-19T12:58:18.627Z,15.75
2023-05-19T13:00:45.339Z,15.84
2023-05-19T13:03:12.133Z,15.79
2023-05-19T13:05:38.650Z,15.78
2023-05-19T13:08:06.364Z,15.90
2023-05-19T13:10:33.209Z,16.00
2023-05-19T13:12:59.895Z,16.18
2023-05-19T13:15:26.589Z,16.34
2023-05-19T13:17:53.042Z,16.46
2023-05-19T13:20:19.612Z,16.39
2023-05-19T13:22:48.152Z,16.36
2023-05-19T13:25:14.651Z,16.49
2023-05-19T13:27:41.087Z,16.48
2023-05-19T13:30:07.517Z,16.64
2023-05-19T13:32:36.334Z,16.81
2023-05-19T13:35:02.782Z,16.97
2023-05-19T13:37:29.271Z,17.03
2023-05-19T13:39:55.895Z,17.18
2023-05-19T13:42:23.050Z,17.14
2023-05-19T13:44:49.408Z,17.24
2023-05-19T13:47:15.931Z,17.20
2023-05-19T13:49:42.516Z,17.15
2023-05-19T13:52:09.032Z,17.18
2023-05-19T13:54:35.414Z,17.27
2023-05-19T13:57:02.224Z,17.29
2023-05-19T13:59:28.639Z,17.23
2023-05-19T14:01:55.227Z,17.27
2023-05-19T14:04:21.846Z,17.41
2023-05-19T14:06:48.452Z,17.44
2023-05-19T14:09:16.084Z,17.51
2023-05-19T14:11:42.581Z,17.50
2023-05-19T14:14:11.104Z,17.44
2023-05-19T14:16:38.483Z,17.44
2023-05-19T14:19:05.040Z,17.37
2023-05-19T14:21:31.659Z,17.35
2023-05-19T14:23:58.169Z,17.37
2023-05-19T14:26:24.708Z,17.42
2023-05-19T14:28:51.130Z,17.39
2023-05-19T14:31:17.575Z,17.44
2023-05-19T14:33:44.136Z,17.45
2023-05-19T14:36:10.708Z,17.43
2023-05-19T14:38:38.084Z,17.34
2023-05-19T14:41:04.493Z,17.26
2023-05-19T14:43:30.998Z,17.26
2023-05-19T14:45:57.399Z,17.26
2023-05-19T14:48:23.806Z,17.25
2023-05-19T14:50:51.125Z,17.22
2023-05-19T14:53:17.576Z,17.24
2023-05-19T14:55:44.038Z,17.37
2023-05-19T14:58:23.704Z,17.39
2023-05-19T15:00:54.493Z,17.34
2023-05-19T15:03:21.230Z,17.35
2023-05-19T15:05:48.184Z,17.28
2023-05-19T15:08:14.621Z,17.18
2023-05-19T15:10:41.296Z,17.15
2023-05-19T15:13:07.814Z,17.11
2023-05-19T15:15:34.258Z,17.07
2023-05-19T15:18:00.924Z,17.10
2023-05-19T15:20:29.425Z,17.14
2023-05-19T15:22:56.019Z,17.08
2023-05-19T15:25:22.521Z,17.07
2023-05-19T15:27:49.150Z,16.93
2023-05-19T15:30:16.124Z,16.89
2023-05-19T15:32:42.572Z,16.95
2023-05-19T15:35:09.056Z,16.83
2023-05-19T15:37:35.401Z,16.79
2023-05-19T15:40:01.842Z,16.85
2023-05-19T15:42:28.347Z,16.81
2023-05-19T15:44:54.939Z,16.82
2023-05-19T15:47:21.388Z,16.86
2023-05-19T15:49:47.940Z,16.89
2023-05-19T15:52:14.441Z,16.91
2023-05-19T15:54:40.815Z,16.86
2023-05-19T15:57:07.631Z,16.85
2023-05-19T15:59:34.110Z,16.86
2023-05-19T16:02:00.535Z,16.88
2023-05-19T16:04:27.009Z,16.88
2023-05-19T16:06:53.474Z,16.85
2023-05-19T16:09:19.924Z,16.84
2023-05-19T16:11:46.493Z,16.80
2023-05-19T16:14:12.945Z,16.78
2023-05-19T16:16:39.431Z,16.84
2023-05-19T16:19:05.988Z,16.81
2023-05-19T16:21:32.429Z,16.77
2023-05-19T16:23:59.086Z,16.73
2023-05-19T16:26:25.474Z,16.74
2023-05-19T16:28:51.924Z,16.71
2023-05-19T16:31:18.380Z,16.75
2023-05-19T16:33:45.203Z,16.75
2023-05-19T16:36:11.600Z,16.69
2023-05-19T16:38:40.540Z,16.73
2023-05-19T16:41:07.240Z,16.70
2023-05-19T16:43:33.876Z,16.63
2023-05-19T16:46:00.382Z,16.60
2023-05-19T16:48:27.061Z,16.62
2023-05-19T16:50:53.464Z,16.58
2023-05-19T16:53:19.897Z,16.57
2023-05-19T16:55:46.323Z,16.59
2023-05-19T16:58:12.680Z,16.70
2023-05-19T17:00:39.171Z,16.85
2023-05-19T17:03:05.693Z,16.76
2023-05-19T17:05:32.171Z,16.74
2023-05-19T17:07:58.686Z,16.70
2023-05-19T17:10:25.100Z,16.65
2023-05-19T17:12:51.694Z,16.65
2023-05-19T17:15:18.138Z,16.57
2023-05-19T17:17:44.585Z,16.46
2023-05-19T17:20:11.367Z,16.48
2023-05-19T17:22:37.743Z,16.52
2023-05-19T17:25:04.250Z,16.43
2023-05-19T17:27:30.735Z,16.34
2023-05-19T17:29:57.288Z,16.29
2023-05-19T17:32:23.856Z,16.15
2023-05-19T17:34:52.398Z,16.11
2023-05-19T17:37:18.959Z,16.09
2023-05-19T17:39:45.404Z,16.03
2023-05-19T17:42:11.896Z,16.02
2023-05-19T17:44:38.429Z,15.88
2023-05-19T17:47:08.504Z,15.85
2023-05-19T17:49:35.146Z,15.77
2023-05-19T17:52:01.846Z,15.80
2023-05-19T17:54:28.419Z,15.81
2023-05-19T17:56:55.405Z,15.78
2023-05-19T17:59:23.089Z,15.81
2023-05-19T18:01:49.983Z,15.80
2023-05-19T18:04:16.808Z,15.76
2023-05-19T18:06:43.779Z,15.74
2023-05-19T18:09:10.612Z,15.69
2023-05-19T18:11:37.311Z,15.69
2023-05-19T18:14:03.955Z,15.63
2023-05-19T18:16:32.320Z,15.58
2023-05-19T18:18:59.605Z,15.61
2023-05-19T18:21:29.583Z,15.65
2023-05-19T18:23:56.512Z,15.64
2023-05-19T18:26:23.663Z,15.59
2023-05-19T18:28:50.820Z,15.56
2023-05-19T18:31:18.064Z,15.53
2023-05-19T18:33:46.341Z,15.46
2023-05-19T18:36:14.301Z,15.45
2023-05-19T18:38:41.919Z,15.45
2023-05-19T18:41:09.046Z,15.45
2023-05-19T18:43:36.580Z,15.53
2023-05-19T18:46:03.824Z,15.62
2023-05-19T18:48:35.465Z,15.46
2023-05-19T18:51:03.514Z,15.45
2023-05-19T18:53:30.837Z,15.40
2023-05-19T18:55:58.036Z,15.37
2023-05-19T18:58:25.525Z,15.25
2023-05-19T19:00:55.070Z,15.22
2023-05-19T19:03:22.508Z,15.19
2023-05-19T19:05:49.977Z,15.15
2023-05-19T19:08:17.539Z,14.97
2023-05-19T19:10:44.743Z,15.00
2023-05-19T19:13:12.395Z,14.99
2023-05-19T19:15:39.721Z,14.91
2023-05-19T19:18:08.233Z,14.94
2023-05-19T19:20:35.542Z,14.97
2023-05-19T19:23:03.035Z,14.90
2023-05-19T19:25:30.560Z,14.79
2023-05-19T19:27:57.752Z,14.66
2023-05-19T19:30:25.292Z,14.62
2023-05-19T19:32:53.241Z,14.60
2023-05-19T19:35:20.801Z,14.62
2023-05-19T19:37:48.113Z,14.63
2023-05-19T19:40:15.352Z,14.64
2023-05-19T19:42:45.223Z,14.66
2023-05-19T19:45:15.454Z,14.69
2023-05-19T19:47:43.084Z,14.58
2023-05-19T19:50:10.327Z,14.53
2023-05-19T19:52:38.069Z,14.58
2023-05-19T19:55:05.931Z,14.56
2023-05-19T19:57:33.116Z,14.51
2023-05-19T20:00:00.735Z,14.51
2023-05-19T20:02:28.575Z,14.58
2023-05-19T20:04:56.120Z,14.49
2023-05-19T20:07:23.477Z,14.44
2023-05-19T20:09:50.645Z,14.38
2023-05-19T20:12:17.948Z,14.32
2023-05-19T20:14:45.146Z,14.33
2023-05-19T20:17:12.389Z,14.31
2023-05-19T20:19:39.573Z,14.28
2023-05-19T20:22:09.562Z,14.27
2023-05-19T20:24:36.732Z,14.28
2023-05-19T20:27:03.958Z,14.24
2023-05-19T20:29:31.136Z,14.19
2023-05-19T20:31:58.327Z,14.17
2023-05-19T20:34:25.521Z,14.10
2023-05-19T20:36:53.341Z,14.07
2023-05-19T20:39:20.444Z,14.03
2023-05-19T20:41:47.522Z,14.05
2023-05-19T20:44:14.781Z,14.01
2023-05-19T20:46:42.180Z,14.03
2023-05-19T20:49:09.289Z,13.97
2023-05-19T20:51:36.423Z,14.01
2023-05-19T20:54:03.636Z,14.02
2023-05-19T20:56:30.574Z,13.99
2023-05-19T20:58:57.459Z,13.89
2023-05-19T21:01:24.202Z,13.89
2023-05-19T21:03:50.964Z,13.92
2023-05-19T21:06:17.380Z,13.98
2023-05-19T21:08:43.739Z,13.98
2023-05-19T21:11:12.622Z,13.91
2023-05-19T21:13:39.423Z,13.92
2023-05-19T21:16:05.876Z,13.84
2023-05-19T21:18:32.535Z,13.85
2023-05-19T21:20:58.936Z,13.83
2023-05-19T21:23:25.384Z,13.83
2023-05-19T21:25:51.820Z,13.73
2023-05-19T21:28:18.222Z,13.76
2023-05-19T21:30:45.004Z,13.59
2023-05-19T21:33:11.615Z,13.60
2023-05-19T21:35:38.199Z,13.60
2023-05-19T21:38:15.775Z,13.66
2023-05-19T21:40:49.571Z,13.65
2023-05-19T21:43:15.981Z,13.67
2023-05-19T21:45:43.054Z,13.70
2023-05-19T21:48:09.604Z,13.72
2023-05-19T21:50:36.216Z,13.72
2023-05-19T21:53:02.720Z,13.71
2023-05-19T21:55:29.168Z,13.67
2023-05-19T21:57:55.569Z,13.66
2023-05-19T22:00:21.943Z,13.58
2023-05-19T22:02:49.219Z,13.52
2023-05-19T22:05:15.696Z,13.53
2023-05-19T22:07:42.106Z,13.50
2023-05-19T22:10:08.526Z,13.47
2023-05-19T22:12:34.938Z,13.46
2023-05-19T22:15:01.397Z,13.45
2023-05-19T22:17:27.859Z,13.45
2023-05-19T22:19:54.337Z,13.44
2023-05-19T22:22:20.725Z,13.43
2023-05-19T22:24:47.571Z,13.43
2023-05-19T22:27:14.011Z,13.40
2023-05-19T22:29:40.555Z,13.37
2023-05-19T22:32:07.043Z,13.37
2023-05-19T22:34:33.506Z,13.32
2023-05-19T22:37:00.003Z,13.34
2023-05-19T22:39:26.453Z,13.30
2023-05-19T22:41:52.939Z,13.19
2023-05-19T22:44:19.416Z,13.20
2023-05-19T22:46:45.809Z,13.22
2023-05-19T22:49:12.254Z,13.09
2023-05-19T22:51:38.695Z,13.02
2023-05-19T22:54:05.121Z,13.10
2023-05-19T22:56:31.689Z,13.13
2023-05-19T22:58:58.138Z,13.16
2023-05-19T23:01:24.595Z,13.16
2023-05-19T23:03:51.102Z,13.13
2023-05-19T23:06:17.509Z,13.05
2023-05-19T23:08:44.834Z,13.03
2023-05-19T23:11:11.348Z,12.98
2023-05-19T23:13:37.921Z,12.97
2023-05-19T23:16:04.303Z,12.99
2023-05-19T23:18:30.800Z,13.02
2023-05-19T23:20:57.211Z,13.00
2023-05-19T23:23:23.625Z,12.93
2023-05-19T23:25:50.008Z,12.94
2023-05-19T23:28:16.543Z,12.88
2023-05-19T23:30:42.960Z,12.75
2023-05-19T23:33:09.423Z,12.74
2023-05-19T23:35:36.045Z,12.78
2023-05-19T23:38:02.674Z,12.72
2023-05-19T23:40:29.201Z,12.60
2023-05-19T23:42:57.912Z,12.61
2023-05-19T23:45:25.022Z,12.55
2023-05-19T23:47:51.554Z,12.59
2023-05-19T23:50:18.182Z,12.61
2023-05-19T23:52:44.625Z,12.64
2023-05-19T23:55:11.065Z,12.67
2023-05-19T23:57:37.499Z,12.68
